Time;durP1;ratioP1;P1;durP2;ratioP2;P2;SDS_P1;SDS_P2;PMS_P1;PMS_P2;Temp;Humidity;BMP_temperature;BMP_pressure;BME280_temperature;BME280_humidity;BME280_pressure;Samples;Min_cycle;Max_cycle;Signal;HPM_P1;HPM_P2
2021/10/13 00:00:21;;;;;;;3.60;1.10;;;8.60;99.90;;;;;;6246963;22;20004;-90
2021/10/13 00:02:47;;;;;;;2.80;0.93;;;8.70;99.90;;;;;;6215530;23;20123;-91
2021/10/13 00:05:13;;;;;;;4.95;1.20;;;8.70;99.90;;;;;;6241492;23;20001;-90
2021/10/13 00:07:39;;;;;;;2.95;0.90;;;8.80;99.90;;;;;;6243956;23;20008;-90
2021/10/13 00:10:06;;;;;;;2.15;1.10;;;8.80;99.90;;;;;;6244021;23;20088;-90
2021/10/13 00:12:34;;;;;;;2.95;0.90;;;8.80;99.90;;;;;;6244483;23;20008;-90
2021/10/13 00:15:05;;;;;;;1.92;1.00;;;8.80;99.90;;;;;;6244699;23;20001;-89
2021/10/13 00:17:32;;;;;;;4.25;1.40;;;8.70;99.90;;;;;;6244476;23;20008;-89
2021/10/13 00:19:58;;;;;;;2.25;1.35;;;8.70;99.90;;;;;;6244190;23;20007;-89
2021/10/13 00:22:24;;;;;;;3.22;0.98;;;8.60;99.90;;;;;;6243067;23;20096;-89
2021/10/13 00:24:50;;;;;;;2.85;0.80;;;8.50;99.90;;;;;;6243002;23;20023;-89
2021/10/13 00:27:16;;;;;;;4.30;1.10;;;8.50;99.90;;;;;;6241947;23;20011;-90
2021/10/13 00:29:43;;;;;;;1.92;0.82;;;8.40;99.90;;;;;;6243498;23;20090;-91
2021/10/13 00:32:09;;;;;;;2.50;0.93;;;8.30;99.90;;;;;;6242785;23;20015;-89
2021/10/13 00:34:39;;;;;;;2.45;0.93;;;8.20;99.90;;;;;;6243458;23;20375;-88
2021/10/13 00:37:05;;;;;;;2.17;0.77;;;8.20;99.90;;;;;;6243560;22;20822;-89
2021/10/13 00:39:34;;;;;;;2.33;0.80;;;8.10;99.90;;;;;;6243046;23;20032;-89
2021/10/13 00:42:00;;;;;;;3.75;1.10;;;8.00;99.90;;;;;;6242808;23;20007;-90
2021/10/13 00:44:26;;;;;;;1.85;0.80;;;8.00;99.90;;;;;;6243324;23;20000;-89
2021/10/13 00:46:52;;;;;;;3.35;1.17;;;8.00;99.90;;;;;;6242116;23;20039;-90
2021/10/13 00:49:18;;;;;;;3.10;0.80;;;7.90;99.90;;;;;;6242080;23;20016;-90
2021/10/13 00:51:46;;;;;;;3.10;1.13;;;7.90;99.90;;;;;;6242218;23;20011;-90
2021/10/13 00:54:11;;;;;;;3.13;0.90;;;7.90;99.90;;;;;;6240315;23;20012;-89
2021/10/13 00:56:38;;;;;;;2.65;0.90;;;7.90;99.90;;;;;;6241706;23;20008;-89
2021/10/13 00:59:04;;;;;;;4.00;1.13;;;7.90;99.90;;;;;;6241083;23;20016;-90
2021/10/13 01:01:49;;;;;;;2.50;0.90;;;7.90;99.90;;;;;;6241087;23;20038;-89
2021/10/13 01:04:28;;;;;;;1.85;0.95;;;8.00;99.90;;;;;;6215665;23;20340;-90
2021/10/13 01:07:33;;;;;;;3.03;0.93;;;8.00;99.90;;;;;;6241701;23;20048;-90
2021/10/13 01:10:23;;;;;;;2.88;0.77;;;8.00;99.90;;;;;;6243605;23;20004;-90
2021/10/13 01:13:03;;;;;;;2.17;0.65;;;8.00;99.90;;;;;;6242793;23;20028;-89
2021/10/13 01:16:08;;;;;;;2.40;0.80;;;8.00;99.90;;;;;;6242690;23;20008;-89
2021/10/13 01:18:54;;;;;;;4.07;0.95;;;8.10;99.90;;;;;;6241881;23;20026;-90
2021/10/13 01:21:41;;;;;;;3.22;1.00;;;8.10;99.90;;;;;;6241885;23;20328;-90
2021/10/13 01:24:17;;;;;;;2.10;0.90;;;8.20;99.90;;;;;;6242523;23;20115;-88
2021/10/13 01:26:54;;;;;;;3.60;1.00;;;8.20;99.90;;;;;;6241408;23;20500;-89
2021/10/13 01:29:22;;;;;;;2.60;1.27;;;8.30;99.90;;;;;;6241161;23;20004;-88
2021/10/13 01:31:53;;;;;;;2.67;1.17;;;8.40;99.90;;;;;;6215694;23;20032;-88
2021/10/13 01:34:29;;;;;;;2.25;1.38;;;8.40;99.90;;;;;;6241664;23;20020;-89
2021/10/13 01:37:00;;;;;;;2.90;0.98;;;8.50;99.90;;;;;;6244011;23;20035;-88
2021/10/13 01:39:29;;;;;;;3.53;0.98;;;8.50;99.90;;;;;;6246820;23;20095;-88
2021/10/13 01:41:57;;;;;;;2.85;1.20;;;8.50;99.90;;;;;;6246086;23;20009;-88
2021/10/13 01:44:28;;;;;;;4.15;1.30;;;8.50;99.90;;;;;;6247364;23;20011;-89
2021/10/13 01:46:54;;;;;;;2.80;1.30;;;8.50;99.90;;;;;;6246407;23;20008;-88
2021/10/13 01:49:22;;;;;;;3.65;1.10;;;8.40;99.90;;;;;;6246014;23;20011;-88
2021/10/13 01:51:50;;;;;;;3.78;1.10;;;8.30;99.90;;;;;;6245752;23;20409;-88
2021/10/13 01:54:17;;;;;;;2.33;1.10;;;8.20;99.90;;;;;;6246234;23;20034;-88
2021/10/13 01:56:45;;;;;;;3.67;1.10;;;8.20;99.90;;;;;;6245190;23;20425;-88
2021/10/13 01:59:19;;;;;;;2.85;1.13;;;8.10;99.90;;;;;;6245986;23;20444;-88
2021/10/13 02:01:45;;;;;;;;;;;8.00;99.90;;;;;;6246433;23;20000;-89
2021/10/13 02:04:13;;;;;;;2.42;0.90;;;8.00;99.90;;;;;;6250702;22;19911;-88
2021/10/13 02:06:42;;;;;;;2.53;0.90;;;7.90;99.90;;;;;;6251249;22;20000;-89
2021/10/13 02:09:11;;;;;;;2.65;1.05;;;7.90;99.90;;;;;;6278498;22;20506;-90
2021/10/13 02:11:38;;;;;;;1.75;0.90;;;7.80;99.90;;;;;;6251390;22;20000;-89
2021/10/13 02:14:14;;;;;;;3.03;0.98;;;7.80;99.90;;;;;;6251326;22;20000;-90
2021/10/13 02:16:43;;;;;;;2.00;0.98;;;7.70;99.90;;;;;;6225940;22;20095;-88
2021/10/13 02:19:14;;;;;;;2.35;1.10;;;7.70;99.90;;;;;;6250642;22;20016;-88
2021/10/13 02:21:46;;;;;;;3.38;1.08;;;7.70;99.90;;;;;;6250514;22;20004;-89
2021/10/13 02:24:15;;;;;;;3.15;0.93;;;7.70;99.90;;;;;;6250834;22;20008;-90
2021/10/13 02:26:47;;;;;;;5.40;1.10;;;7.70;99.90;;;;;;6251257;22;20323;-87
2021/10/13 02:29:20;;;;;;;4.65;1.17;;;7.70;99.90;;;;;;6278660;22;20000;-89
2021/10/13 02:31:49;;;;;;;2.30;1.08;;;7.70;99.90;;;;;;6277605;22;20431;-89
2021/10/13 02:34:16;;;;;;;2.33;0.85;;;7.60;99.90;;;;;;6250927;22;20094;-89
2021/10/13 02:36:43;;;;;;;3.08;1.25;;;7.60;99.90;;;;;;6251367;22;20000;-88
2021/10/13 02:39:10;;;;;;;2.63;1.00;;;7.60;99.90;;;;;;6251433;22;20447;-89
2021/10/13 02:41:38;;;;;;;8.20;1.52;;;7.60;99.90;;;;;;6277986;22;20110;-88
2021/10/13 02:44:06;;;;;;;2.22;0.80;;;7.70;99.90;;;;;;6251125;22;20062;-90
2021/10/13 02:46:53;;;;;;;4.78;1.13;;;7.80;99.90;;;;;;6250318;22;20004;-89
2021/10/13 02:49:32;;;;;;;2.60;1.10;;;7.90;99.90;;;;;;6250147;22;20008;-89
2021/10/13 02:52:08;;;;;;;2.45;0.93;;;8.00;99.90;;;;;;6277415;22;20719;-88
2021/10/13 02:55:00;;;;;;;1.88;1.08;;;8.00;99.90;;;;;;6251008;22;20054;-89
2021/10/13 02:57:35;;;;;;;2.30;0.85;;;8.10;99.90;;;;;;6250969;22;20010;-89
2021/10/13 03:00:06;;;;;;;2.63;1.10;;;8.10;99.90;;;;;;6277923;22;20023;-89
2021/10/13 03:02:39;;;;;;;3.30;1.15;;;8.10;99.90;;;;;;6250521;22;20012;-89
2021/10/13 03:05:06;;;;;;;3.45;1.30;;;8.20;99.90;;;;;;6251419;22;20012;-89
2021/10/13 03:07:38;;;;;;;3.63;1.05;;;8.20;99.90;;;;;;6249263;22;20012;-90
2021/10/13 03:10:06;;;;;;;3.85;1.10;;;8.30;99.90;;;;;;6250062;22;20015;-90
2021/10/13 03:12:54;;;;;;;3.60;0.98;;;8.30;99.90;;;;;;6250085;22;20452;-90
2021/10/13 03:15:24;;;;;;;2.33;0.93;;;8.30;99.90;;;;;;6250728;22;20019;-90
2021/10/13 03:17:55;;;;;;;2.38;0.90;;;8.30;99.90;;;;;;6250497;22;20046;-89
2021/10/13 03:20:23;;;;;;;1.60;1.00;;;8.30;99.90;;;;;;6250738;22;20380;-89
2021/10/13 03:22:50;;;;;;;2.10;1.10;;;8.30;99.90;;;;;;6250579;22;20008;-90
2021/10/13 03:25:43;;;;;;;2.25;1.00;;;8.40;99.90;;;;;;6250427;22;20066;-90
2021/10/13 03:28:12;;;;;;;2.88;0.95;;;8.40;99.90;;;;;;6244406;22;20011;-90
2021/10/13 03:30:38;;;;;;;2.95;1.00;;;8.40;99.90;;;;;;6225961;22;20066;-89
2021/10/13 03:33:04;;;;;;;5.65;1.30;;;8.40;99.90;;;;;;6250775;22;20003;-89
2021/10/13 03:35:32;;;;;;;4.93;1.10;;;8.50;99.90;;;;;;6250785;22;20004;-89
2021/10/13 03:38:01;;;;;;;2.83;0.98;;;8.50;99.90;;;;;;6253003;22;20463;-90
2021/10/13 03:40:28;;;;;;;2.67;1.27;;;8.50;99.90;;;;;;6252987;22;20010;-90
2021/10/13 03:42:55;;;;;;;4.78;1.08;;;8.60;99.90;;;;;;6252103;22;19999;-89
2021/10/13 03:45:24;;;;;;;2.47;1.00;;;8.60;99.90;;;;;;6279814;22;19995;-89
2021/10/13 03:47:52;;;;;;;2.40;1.10;;;8.60;99.90;;;;;;6279203;22;20439;-89
2021/10/13 03:50:21;;;;;;;3.05;1.13;;;8.60;99.90;;;;;;6252628;22;20035;-90
2021/10/13 03:52:50;;;;;;;4.57;1.35;;;8.60;99.90;;;;;;6279377;22;19995;-89
2021/10/13 03:55:19;;;;;;;2.63;0.88;;;8.70;99.90;;;;;;6252874;22;20000;-90
2021/10/13 03:57:48;;;;;;;3.25;1.17;;;8.70;99.90;;;;;;6227838;22;20018;-89
2021/10/13 04:00:23;;;;;;;4.22;1.33;;;8.70;99.90;;;;;;6279935;22;19995;-89
2021/10/13 04:02:50;;;;;;;4.60;1.88;;;8.70;99.90;;;;;;6243950;23;20075;-88
2021/10/13 04:05:17;;;;;;;3.72;1.17;;;8.80;99.90;;;;;;6247372;23;20000;-89
2021/10/13 04:07:44;;;;;;;2.80;1.13;;;8.80;99.90;;;;;;6247497;23;20004;-89
2021/10/13 04:10:13;;;;;;;3.85;1.15;;;8.80;99.90;;;;;;6247155;23;20009;-90
2021/10/13 04:12:40;;;;;;;1.67;0.90;;;8.80;99.90;;;;;;6247630;23;20086;-89
2021/10/13 04:15:12;;;;;;;3.22;0.85;;;8.80;99.90;;;;;;6247520;23;20004;-89
2021/10/13 04:17:39;;;;;;;1.60;0.90;;;8.80;99.90;;;;;;6246395;23;20014;-89
2021/10/13 04:20:09;;;;;;;2.60;1.00;;;8.80;99.90;;;;;;6247889;23;20026;-89
2021/10/13 04:22:36;;;;;;;2.05;0.95;;;8.80;99.90;;;;;;6247447;23;20031;-89
2021/10/13 04:25:04;;;;;;;3.55;0.85;;;8.90;99.90;;;;;;6246944;23;20008;-89
2021/10/13 04:27:30;;;;;;;1.73;0.98;;;8.80;99.90;;;;;;6248648;23;20011;-89
2021/10/13 04:29:57;;;;;;;2.88;0.95;;;8.90;99.90;;;;;;6247740;23;20036;-89
2021/10/13 04:32:23;;;;;;;2.17;1.02;;;8.90;99.90;;;;;;6248712;23;20190;-88
2021/10/13 04:34:50;;;;;;;2.72;1.40;;;8.80;99.90;;;;;;6243252;23;20063;-89
2021/10/13 04:37:16;;;;;;;3.53;1.15;;;8.90;99.90;;;;;;6247254;23;19996;-90
2021/10/13 04:39:53;;;;;;;2.58;0.95;;;8.80;99.90;;;;;;6248608;23;20027;-90
2021/10/13 04:42:29;;;;;;;2.80;0.90;;;8.80;99.90;;;;;;6249355;23;20032;-90
2021/10/13 04:45:09;;;;;;;2.38;0.98;;;8.70;99.90;;;;;;6248093;23;20004;-90
2021/10/13 04:47:40;;;;;;;1.48;1.00;;;8.60;99.90;;;;;;6246272;23;20027;-90
2021/10/13 04:50:14;;;;;;;2.00;1.10;;;8.50;99.90;;;;;;6248627;23;20015;-89
2021/10/13 04:52:42;;;;;;;4.20;1.20;;;8.50;99.90;;;;;;6222935;23;20012;-89
2021/10/13 04:55:11;;;;;;;1.65;0.90;;;8.40;99.90;;;;;;6244758;23;20383;-89
2021/10/13 04:57:39;;;;;;;2.35;0.93;;;8.40;99.90;;;;;;6245844;23;20016;-89
2021/10/13 05:00:07;;;;;;;2.47;0.95;;;8.40;99.90;;;;;;6243864;23;20012;-90
2021/10/13 05:02:36;;;;;;;2.70;1.25;;;8.30;99.90;;;;;;6223442;22;20093;-90
2021/10/13 05:05:06;;;;;;;4.18;1.20;;;8.20;99.90;;;;;;6249506;22;20003;-90
2021/10/13 05:07:35;;;;;;;3.97;1.20;;;8.20;99.90;;;;;;6249108;22;20007;-90
2021/10/13 05:10:04;;;;;;;2.00;1.00;;;8.10;99.90;;;;;;6252284;22;20058;-89
2021/10/13 05:12:32;;;;;;;2.15;1.08;;;8.00;99.90;;;;;;6251805;22;20057;-90
2021/10/13 05:15:03;;;;;;;4.18;1.20;;;8.00;99.90;;;;;;6253215;22;20435;-90
2021/10/13 05:17:32;;;;;;;2.47;1.10;;;8.00;99.90;;;;;;6251895;22;20020;-90
2021/10/13 05:20:00;;;;;;;3.17;1.30;;;7.90;99.90;;;;;;6278592;22;20061;-90
2021/10/13 05:22:27;;;;;;;2.75;1.30;;;7.80;99.90;;;;;;6250130;22;20106;-90
2021/10/13 05:24:55;;;;;;;3.97;1.10;;;7.80;99.90;;;;;;6250728;22;20007;-90
2021/10/13 05:27:22;;;;;;;3.65;1.23;;;7.80;99.90;;;;;;6249871;22;20008;-90
2021/10/13 05:29:48;;;;;;;2.65;1.20;;;7.70;99.90;;;;;;6249513;22;20007;-89
2021/10/13 05:32:17;;;;;;;3.65;1.35;;;7.70;99.90;;;;;;6251121;22;20008;-89
2021/10/13 05:34:48;;;;;;;2.20;1.10;;;7.70;99.90;;;;;;6278526;22;20050;-89
2021/10/13 05:37:15;;;;;;;2.95;1.20;;;7.70;99.90;;;;;;6250908;22;20431;-90
2021/10/13 05:39:41;;;;;;;2.55;1.30;;;7.70;99.90;;;;;;6250671;22;20751;-91
2021/10/13 05:42:08;;;;;;;3.90;1.60;;;7.70;99.90;;;;;;6251246;22;20329;-91
2021/10/13 05:44:34;;;;;;;3.05;1.52;;;7.70;99.90;;;;;;6251000;22;20000;-89
2021/10/13 05:47:02;;;;;;;3.53;1.15;;;7.70;99.90;;;;;;6278359;22;20003;-90
2021/10/13 05:49:29;;;;;;;3.47;1.05;;;7.70;99.90;;;;;;6250375;22;20064;-90
2021/10/13 05:51:57;;;;;;;4.07;1.38;;;7.70;99.90;;;;;;6251417;22;20479;-90
2021/10/13 05:54:27;;;;;;;1.98;1.13;;;7.70;99.90;;;;;;6250195;22;20012;-90
2021/10/13 05:57:02;;;;;;;1.95;1.02;;;7.80;99.90;;;;;;6274639;22;20004;-89
2021/10/13 05:59:36;;;;;;;2.75;1.40;;;7.90;99.90;;;;;;6252075;22;20073;-90
2021/10/13 06:02:04;;;;;;;4.20;1.27;;;7.90;99.90;;;;;;6251383;22;20038;-90
2021/10/13 06:04:33;;;;;;;3.97;1.48;;;8.00;99.90;;;;;;6221061;23;20347;-90
2021/10/13 06:07:01;;;;;;;3.35;1.23;;;8.10;99.90;;;;;;6247512;23;20008;-90
2021/10/13 06:09:27;;;;;;;2.40;1.33;;;8.10;99.90;;;;;;6246479;23;20007;-90
2021/10/13 06:11:55;;;;;;;3.22;1.27;;;8.20;99.90;;;;;;6245749;23;20000;-91
2021/10/13 06:14:23;;;;;;;3.80;1.35;;;8.30;99.90;;;;;;6246049;23;20008;-90
2021/10/13 06:16:49;;;;;;;4.93;1.25;;;8.30;99.90;;;;;;6245152;23;20012;-90
2021/10/13 06:19:15;;;;;;;3.42;1.30;;;8.40;99.90;;;;;;6245726;23;20039;-90
2021/10/13 06:21:43;;;;;;;4.25;1.30;;;8.40;99.90;;;;;;6248437;23;20367;-92
2021/10/13 06:24:13;;;;;;;2.67;1.20;;;8.50;99.90;;;;;;6248102;23;20011;-89
2021/10/13 06:26:41;;;;;;;3.15;1.38;;;8.50;99.90;;;;;;6223389;23;20011;-90
2021/10/13 06:29:09;;;;;;;3.40;1.75;;;8.60;99.90;;;;;;6247562;23;20079;-90
2021/10/13 06:31:37;;;;;;;5.13;1.27;;;8.60;99.90;;;;;;6245323;23;20004;-90
2021/10/13 06:34:04;;;;;;;3.97;1.30;;;8.70;99.90;;;;;;6220198;23;20039;-90
2021/10/13 06:36:32;;;;;;;2.88;1.17;;;8.70;99.90;;;;;;6245781;23;20033;-89
2021/10/13 06:39:00;;;;;;;1.85;1.00;;;8.80;99.90;;;;;;6245835;23;20008;-90
2021/10/13 06:41:31;;;;;;;2.33;0.90;;;8.80;99.90;;;;;;6247033;23;20028;-90
2021/10/13 06:43:59;;;;;;;3.35;1.20;;;8.80;99.90;;;;;;6246718;23;20000;-90
2021/10/13 06:46:28;;;;;;;5.00;1.63;;;8.90;99.90;;;;;;6246841;23;20000;-90
2021/10/13 06:48:56;;;;;;;3.25;1.48;;;8.90;99.90;;;;;;6246257;23;20008;-89
2021/10/13 06:51:25;;;;;;;3.90;1.30;;;9.00;99.90;;;;;;6247606;23;20054;-91
2021/10/13 06:53:59;;;;;;;3.13;1.40;;;9.00;99.90;;;;;;6245783;23;20357;-90
2021/10/13 06:56:27;;;;;;;2.55;1.00;;;9.10;99.90;;;;;;6244860;23;20009;-90
2021/10/13 06:59:01;;;;;;;2.00;1.08;;;9.20;99.90;;;;;;6246172;22;20050;-90
2021/10/13 07:01:28;;;;;;;2.63;1.40;;;9.20;99.90;;;;;;6197374;23;20088;-91
2021/10/13 07:03:55;;;;;;;4.53;1.35;;;9.20;99.90;;;;;;6219794;23;20024;-91
2021/10/13 07:06:27;;;;;;;3.08;1.30;;;9.30;99.90;;;;;;6245634;23;20013;-90
2021/10/13 07:09:05;;;;;;;4.32;1.50;;;9.30;99.90;;;;;;6246351;23;20008;-89
2021/10/13 07:11:35;;;;;;;3.08;1.40;;;9.40;99.90;;;;;;6239731;23;20016;-91
2021/10/13 07:14:06;;;;;;;3.13;1.45;;;9.40;99.90;;;;;;6244827;23;20377;-91
2021/10/13 07:16:34;;;;;;;3.90;1.70;;;9.50;99.90;;;;;;6244560;23;20014;-91
2021/10/13 07:19:04;;;;;;;3.47;2.00;;;9.50;99.90;;;;;;6246849;23;20082;-89
2021/10/13 07:21:32;;;;;;;4.68;1.70;;;9.60;99.90;;;;;;6220778;23;20005;-89
2021/10/13 07:24:02;;;;;;;3.28;1.60;;;9.60;99.90;;;;;;6245332;23;20649;-90
2021/10/13 07:26:34;;;;;;;6.80;1.92;;;9.70;99.90;;;;;;6247662;22;19996;-90
2021/10/13 07:29:01;;;;;;;5.63;1.60;;;9.80;99.90;;;;;;6242712;23;20056;-89
2021/10/13 07:31:28;;;;;;;5.82;2.00;;;9.90;99.90;;;;;;6245608;23;20035;-90
2021/10/13 07:33:55;;;;;;;4.63;2.13;;;10.00;99.90;;;;;;6244149;23;20007;-91
2021/10/13 07:36:24;;;;;;;4.35;2.20;;;10.10;99.90;;;;;;6245786;23;20005;-90
2021/10/13 07:38:52;;;;;;;5.78;1.92;;;10.10;99.90;;;;;;6244882;23;20012;-90
2021/10/13 07:41:20;;;;;;;5.43;2.00;;;10.20;99.90;;;;;;6244143;23;20012;-91
2021/10/13 07:43:48;;;;;;;5.05;2.30;;;10.20;99.90;;;;;;6245656;23;20058;-90
2021/10/13 07:46:34;;;;;;;5.85;2.22;;;10.30;99.90;;;;;;6244714;23;20349;-90
2021/10/13 07:49:06;;;;;;;6.18;2.35;;;10.30;99.90;;;;;;6245301;23;20027;-90
2021/10/13 07:51:38;;;;;;;3.60;2.20;;;10.30;99.90;;;;;;6244899;23;20050;-89
2021/10/13 07:54:16;;;;;;;7.72;2.20;;;10.30;99.90;;;;;;6245811;23;20011;-90
2021/10/13 07:56:45;;;;;;;4.90;1.95;;;10.30;99.90;;;;;;6221316;23;20099;-91
2021/10/13 07:59:26;;;;;;;4.03;2.10;;;10.50;99.90;;;;;;6244207;23;20016;-90
2021/10/13 08:01:52;;;;;;;4.60;1.90;;;10.50;99.90;;;;;;6218197;23;20008;-90
2021/10/13 08:04:22;;;;;;;4.63;1.88;;;10.60;99.90;;;;;;6272523;22;20019;-91
2021/10/13 08:06:49;;;;;;;5.15;1.88;;;10.80;99.90;;;;;;6248241;22;20008;-90
2021/10/13 08:09:15;;;;;;;5.75;2.33;;;10.80;99.90;;;;;;6248820;22;20007;-90
2021/10/13 08:11:44;;;;;;;5.20;2.05;;;10.90;99.90;;;;;;6248294;22;20004;-90
2021/10/13 08:14:11;;;;;;;4.07;2.05;;;10.90;99.90;;;;;;6223530;22;20652;-90
2021/10/13 08:16:38;;;;;;;5.15;2.20;;;11.00;99.90;;;;;;6224686;22;20008;-91
2021/10/13 08:19:05;;;;;;;3.65;1.95;;;11.10;99.90;;;;;;6248008;22;20011;-90
2021/10/13 08:21:35;;;;;;;4.20;1.88;;;11.20;99.90;;;;;;6247889;22;20011;-89
2021/10/13 08:24:07;;;;;;;4.55;2.03;;;11.40;99.90;;;;;;6250074;22;20427;-89
2021/10/13 08:26:43;;;;;;;6.07;2.00;;;11.50;99.90;;;;;;6251311;22;20031;-92
2021/10/13 08:29:10;;;;;;;5.60;2.10;;;11.50;99.90;;;;;;6243744;22;20016;-90
2021/10/13 08:31:37;;;;;;;7.13;2.13;;;11.70;99.90;;;;;;6250103;22;20007;-89
2021/10/13 08:34:14;;;;;;;3.60;1.60;;;11.70;99.90;;;;;;6278430;22;20082;-89
2021/10/13 08:36:42;;;;;;;3.53;1.73;;;11.80;99.90;;;;;;6250864;22;20003;-90
2021/10/13 08:39:16;;;;;;;7.30;2.22;;;11.80;99.90;;;;;;6247304;22;20022;-90
2021/10/13 08:41:43;;;;;;;4.88;2.63;;;11.80;99.90;;;;;;6251792;22;20003;-90
2021/10/13 08:44:32;;;;;;;5.82;2.38;;;11.90;99.90;;;;;;6251380;22;20031;-89
2021/10/13 08:47:02;;;;;;;4.05;1.80;;;12.00;99.90;;;;;;6226813;22;20038;-90
2021/10/13 08:49:29;;;;;;;5.95;2.35;;;12.20;99.90;;;;;;6225590;22;20423;-90
2021/10/13 08:51:55;;;;;;;5.82;2.95;;;12.50;99.90;;;;;;6250906;22;19999;-91
2021/10/13 08:54:24;;;;;;;7.90;2.72;;;12.70;99.90;;;;;;6251799;22;19999;-90
2021/10/13 08:56:52;;;;;;;5.68;2.83;;;12.80;99.90;;;;;;6249812;22;20431;-91
2021/10/13 08:59:47;;;;;;;4.25;2.08;;;12.80;99.90;;;;;;6250673;22;20093;-88
2021/10/13 09:02:35;;;;;;;6.72;2.40;;;12.90;99.90;;;;;;6276535;22;20062;-89
2021/10/13 09:05:14;;;;;;;7.53;2.20;;;13.00;99.90;;;;;;6245755;23;20012;-90
2021/10/13 09:07:56;;;;;;;4.45;1.90;;;13.10;99.90;;;;;;6246411;23;20035;-89
2021/10/13 09:10:41;;;;;;;5.90;1.90;;;13.20;99.90;;;;;;6219817;23;20098;-88
2021/10/13 09:13:19;;;;;;;4.38;1.95;;;13.20;99.90;;;;;;6219950;23;20570;-89
2021/10/13 09:15:58;;;;;;;6.05;1.52;;;13.30;99.90;;;;;;6219339;23;20004;-89
2021/10/13 09:18:26;;;;;;;5.07;1.83;;;13.50;99.90;;;;;;6195961;23;20011;-90
2021/10/13 09:20:58;;;;;;;4.70;1.80;;;13.80;99.90;;;;;;6246067;22;20038;-89
2021/10/13 09:23:29;;;;;;;7.35;2.08;;;14.10;99.90;;;;;;6219419;23;20070;-90
2021/10/13 09:26:10;;;;;;;2.80;1.48;;;14.40;99.90;;;;;;6220803;23;20008;-89
2021/10/13 09:29:06;;;;;;;9.52;1.95;;;15.30;99.90;;;;;;6248648;23;20075;-89
2021/10/13 09:31:36;;;;;;;5.50;1.85;;;16.60;99.90;;;;;;6249292;23;20004;-89
2021/10/13 09:34:08;;;;;;;4.88;1.50;;;17.50;99.90;;;;;;6194944;23;20012;-89
2021/10/13 09:36:42;;;;;;;6.63;1.58;;;18.30;99.90;;;;;;6246109;23;20401;-90
2021/10/13 09:39:19;;;;;;;3.08;1.35;;;18.90;99.90;;;;;;6219916;23;20016;-90
2021/10/13 09:42:41;;;;;;;;;;;;;;;;;;;;;
2021/10/13 09:45:14;;;;;;;2.90;1.10;;;19.60;99.90;;;;;;6244372;23;20007;-91
2021/10/13 09:47:47;;;;;;;2.47;0.98;;;19.10;99.90;;;;;;6219741;23;20084;-91
2021/10/13 09:50:15;;;;;;;2.25;1.10;;;18.70;99.90;;;;;;6220973;23;20031;-90
2021/10/13 09:52:45;;;;;;;3.53;0.80;;;18.60;99.90;;;;;;6247950;23;20014;-87
2021/10/13 09:55:13;;;;;;;5.00;1.08;;;18.70;99.90;;;;;;6195633;23;20004;-91
2021/10/13 09:57:48;;;;;;;4.10;1.00;;;19.00;99.90;;;;;;6214190;23;20086;-91
2021/10/13 10:00:21;;;;;;;3.92;1.38;;;19.90;99.90;;;;;;6219663;23;20012;-90
2021/10/13 10:02:58;;;;;;;2.53;0.80;;;20.40;99.90;;;;;;6250498;22;20336;-90
2021/10/13 10:05:36;;;;;;;2.47;0.82;;;21.20;99.90;;;;;;6250860;22;20427;-90
2021/10/13 10:08:14;;;;;;;3.72;0.93;;;21.00;99.90;;;;;;6250370;22;20385;-90
2021/10/13 10:11:07;;;;;;;3.05;1.30;;;20.30;99.90;;;;;;6250223;22;20008;-90
2021/10/13 10:13:42;;;;;;;5.38;0.95;;;19.60;99.90;;;;;;6277572;22;20141;-92
2021/10/13 10:16:10;;;;;;;3.20;1.05;;;19.40;99.90;;;;;;6276897;22;20740;-90
2021/10/13 10:18:41;;;;;;;4.38;0.70;;;19.30;99.90;;;;;;6250579;22;20014;-90
2021/10/13 10:21:20;;;;;;;3.05;0.80;;;19.50;99.90;;;;;;6277288;22;20388;-90
2021/10/13 10:23:50;;;;;;;2.28;0.73;;;19.30;99.90;;;;;;6250383;22;20079;-90
2021/10/13 10:26:29;;;;;;;3.70;0.95;;;19.10;99.90;;;;;;6247147;22;20087;-90
2021/10/13 10:29:10;;;;;;;3.58;0.80;;;19.10;99.90;;;;;;6249532;22;20014;-91
2021/10/13 10:31:59;;;;;;;2.90;0.70;;;19.10;99.90;;;;;;6276793;22;20008;-92
2021/10/13 10:34:30;;;;;;;4.47;0.95;;;18.70;99.90;;;;;;6250236;22;20004;-89
2021/10/13 10:36:55;;;;;;;2.17;0.55;;;18.60;99.90;;;;;;6249961;22;20060;-90
2021/10/13 10:39:58;;;;;;;3.35;0.80;;;18.80;99.90;;;;;;6276725;22;20031;-89
2021/10/13 10:42:50;;;;;;;3.13;0.70;;;19.50;99.90;;;;;;6272278;22;20149;-90
2021/10/13 10:45:40;;;;;;;3.78;0.60;;;19.60;99.90;;;;;;6276694;22;20007;-89
2021/10/13 10:48:27;;;;;;;3.10;0.80;;;19.40;99.90;;;;;;6274333;22;20004;-90
2021/10/13 10:51:02;;;;;;;3.80;0.88;;;19.50;99.90;;;;;;6248381;22;20011;-90
2021/10/13 10:53:34;;;;;;;2.83;0.73;;;19.40;99.90;;;;;;6249124;22;20122;-90
2021/10/13 10:56:25;;;;;;;5.47;0.60;;;19.30;99.90;;;;;;6274609;22;20015;-91
2021/10/13 10:59:12;;;;;;;6.43;0.85;;;18.90;99.90;;;;;;6276378;22;20012;-90
2021/10/13 11:02:02;;;;;;;2.78;0.50;;;18.70;99.90;;;;;;6247687;22;20003;-89
2021/10/13 11:04:44;;;;;;;1.58;0.40;;;18.60;99.90;;;;;;6244090;23;20027;-90
2021/10/13 11:07:42;;;;;;;3.75;0.80;;;18.60;99.90;;;;;;6244556;23;20039;-90
2021/10/13 11:10:12;;;;;;;1.35;0.45;;;18.50;99.90;;;;;;6242249;23;20011;-90
2021/10/13 11:13:02;;;;;;;3.85;0.68;;;18.30;99.90;;;;;;6244403;23;20011;-91
2021/10/13 11:15:41;;;;;;;4.07;1.10;;;18.20;99.90;;;;;;6229040;23;20012;-90
2021/10/13 11:18:22;;;;;;;3.10;0.82;;;18.60;99.90;;;;;;6247487;22;20409;-90
2021/10/13 11:20:48;;;;;;;3.60;0.80;;;19.50;99.90;;;;;;6255371;23;20024;-91
2021/10/13 11:23:27;;;;;;;5.10;0.88;;;20.60;99.90;;;;;;6246268;23;20000;-91
2021/10/13 11:25:54;;;;;;;2.33;0.80;;;22.00;99.90;;;;;;6245613;23;20000;-90
2021/10/13 11:28:34;;;;;;;3.45;0.88;;;23.00;99.90;;;;;;6246587;23;20023;-90
2021/10/13 11:31:07;;;;;;;3.42;0.90;;;23.60;99.90;;;;;;6243690;23;20050;-90
2021/10/13 11:33:45;;;;;;;2.15;0.75;;;24.00;99.90;;;;;;6243800;23;20008;-91
2021/10/13 11:36:15;;;;;;;3.78;0.70;;;24.50;99.90;;;;;;6244136;23;20091;-90
2021/10/13 11:38:42;;;;;;;1.55;0.60;;;24.30;99.90;;;;;;6243169;23;20008;-89
2021/10/13 11:41:13;;;;;;;2.17;0.40;;;24.30;99.90;;;;;;6245724;23;19996;-91
2021/10/13 11:43:52;;;;;;;4.13;0.82;;;24.10;99.90;;;;;;6243462;23;20016;-91
2021/10/13 11:46:23;;;;;;;1.92;0.82;;;23.00;99.90;;;;;;6244911;23;20008;-91
2021/10/13 11:49:01;;;;;;;2.78;0.68;;;21.80;99.90;;;;;;6244566;23;20005;-91
2021/10/13 11:51:30;;;;;;;2.20;0.50;;;20.90;99.90;;;;;;6243302;23;20004;-91
2021/10/13 11:54:00;;;;;;;2.38;0.50;;;20.20;99.90;;;;;;6243936;23;20001;-91
2021/10/13 11:56:28;;;;;;;1.48;0.50;;;19.40;99.90;;;;;;6246243;23;20075;-91
2021/10/13 11:59:21;;;;;;;3.13;0.60;;;18.90;99.90;;;;;;6245521;23;20020;-90
2021/10/13 12:01:54;;;;;;;2.45;0.70;;;18.50;99.90;;;;;;6245544;23;20004;-91
2021/10/13 12:04:27;;;;;;;2.33;0.60;;;18.10;99.90;;;;;;6250468;22;20042;-92
2021/10/13 12:06:55;;;;;;;2.83;0.50;;;17.80;99.90;;;;;;6248606;22;20011;-91
2021/10/13 12:09:22;;;;;;;2.33;0.63;;;17.70;99.90;;;;;;6277681;22;20015;-92
2021/10/13 12:11:49;;;;;;;2.80;0.70;;;17.60;99.90;;;;;;6277549;22;20004;-90
2021/10/13 12:14:23;;;;;;;1.70;0.60;;;17.70;99.90;;;;;;6251851;22;20169;-91
2021/10/13 12:16:49;;;;;;;2.72;0.70;;;17.90;99.90;;;;;;6227401;22;20011;-90
2021/10/13 12:19:19;;;;;;;2.42;0.63;;;18.00;99.90;;;;;;6251193;22;20012;-91
2021/10/13 12:21:59;;;;;;;3.83;0.75;;;18.70;99.90;;;;;;6250453;22;20063;-90
2021/10/13 12:24:29;;;;;;;3.05;0.60;;;19.00;99.90;;;;;;6249175;22;20053;-88
2021/10/13 12:26:55;;;;;;;3.17;0.80;;;19.20;99.90;;;;;;6245894;22;19999;-89
2021/10/13 12:29:43;;;;;;;3.35;0.80;;;19.70;99.90;;;;;;6219151;22;20003;-91
2021/10/13 12:32:23;;;;;;;2.20;0.90;;;19.60;99.90;;;;;;6239342;22;20011;-89
2021/10/13 12:35:11;;;;;;;3.10;0.77;;;19.40;99.90;;;;;;6274031;22;20034;-90
2021/10/13 12:37:46;;;;;;;1.23;0.50;;;19.30;99.90;;;;;;6244666;22;20011;-90
2021/10/13 12:40:15;;;;;;;2.83;0.80;;;19.00;99.90;;;;;;6246309;22;20087;-91
2021/10/13 12:42:41;;;;;;;2.65;0.68;;;18.70;99.90;;;;;;6221429;22;20416;-90
2021/10/13 12:45:09;;;;;;;1.77;0.63;;;18.50;99.90;;;;;;6246316;22;20031;-90
2021/10/13 12:47:44;;;;;;;2.60;0.90;;;18.70;99.90;;;;;;6242160;22;20442;-90
2021/10/13 12:50:18;;;;;;;3.20;1.00;;;19.30;99.90;;;;;;6244371;22;20012;-89
2021/10/13 12:52:49;;;;;;;3.58;1.10;;;19.70;99.90;;;;;;6271568;22;20006;-90
2021/10/13 12:55:16;;;;;;;5.40;0.95;;;19.90;99.90;;;;;;6244512;22;20033;-89
2021/10/13 12:57:45;;;;;;;2.65;0.70;;;19.90;99.90;;;;;;6248937;22;20008;-89
2021/10/13 13:00:11;;;;;;;2.92;0.70;;;20.40;99.90;;;;;;6232127;22;20015;-88
2021/10/13 13:02:41;;;;;;;2.08;0.50;;;20.70;99.90;;;;;;6247597;22;20007;-89
2021/10/13 13:05:08;;;;;;;2.17;0.73;;;20.70;99.90;;;;;;6242514;23;20440;-87
2021/10/13 13:07:35;;;;;;;4.22;0.60;;;20.50;99.90;;;;;;6240116;23;20065;-91
2021/10/13 13:10:03;;;;;;;3.60;0.75;;;20.10;99.90;;;;;;6238729;23;20087;-89
2021/10/13 13:12:30;;;;;;;3.15;0.52;;;19.80;99.90;;;;;;6240013;23;20008;-88
2021/10/13 13:14:58;;;;;;;2.42;0.60;;;19.40;99.90;;;;;;6238472;23;20098;-89
2021/10/13 13:17:26;;;;;;;1.60;0.60;;;19.00;99.90;;;;;;6237997;23;20004;-89